sensor_id;sensor_type;location;lat;lon;timestamp;P1;P2;P0
58740;PMS7003;44512;53.046;18.604;2023-03-01T00:04:30;51;39;27
58740;PMS7003;44512;53.046;18.604;2023-03-01T00:14:59;50;37;24
58740;PMS7003;44512;53.046;18.604;2023-03-01T00:25:27;64;48;31
58740;PMS7003;44512;53.046;18.604;2023-03-01T00:35:57;54;41;28
58740;PMS7003;44512;53.046;18.604;2023-03-01T00:46:25;53;41;28
58740;PMS7003;44512;53.046;18.604;2023-03-01T00:56:53;48;37;25
58740;PMS7003;44512;53.046;18.604;2023-03-01T01:07:21;54;39;25
58740;PMS7003;44512;53.046;18.604;2023-03-01T01:17:50;53;43;28
58740;PMS7003;44512;53.046;18.604;2023-03-01T01:28:18;53;38;25
58740;PMS7003;44512;53.046;18.604;2023-03-01T01:38:47;48;37;25
58740;PMS7003;44512;53.046;18.604;2023-03-01T01:59:45;47;38;26
58740;PMS7003;44512;53.046;18.604;2023-03-01T02:10:12;55;39;27
58740;PMS7003;44512;53.046;18.604;2023-03-01T02:31:09;39;31;22
58740;PMS7003;44512;53.046;18.604;2023-03-01T02:41:38;49;37;25
58740;PMS7003;44512;53.046;18.604;2023-03-01T03:02:35;55;42;28
58740;PMS7003;44512;53.046;18.604;2023-03-01T03:13:05;53;35;26
58740;PMS7003;44512;53.046;18.604;2023-03-01T03:23:31;40;32;23
58740;PMS7003;44512;53.046;18.604;2023-03-01T03:34:00;49;37;27
58740;PMS7003;44512;53.046;18.604;2023-03-01T03:44:28;37;33;22
58740;PMS7003;44512;53.046;18.604;2023-03-01T03:54:57;40;33;23
58740;PMS7003;44512;53.046;18.604;2023-03-01T04:05:26;49;37;25
58740;PMS7003;44512;53.046;18.604;2023-03-01T04:15:54;51;40;26
58740;PMS7003;44512;53.046;18.604;2023-03-01T04:26:22;46;34;20
58740;PMS7003;44512;53.046;18.604;2023-03-01T04:36:51;52;37;25
58740;PMS7003;44512;53.046;18.604;2023-03-01T04:47:19;41;34;24
58740;PMS7003;44512;53.046;18.604;2023-03-01T04:57:48;37;29;21
58740;PMS7003;44512;53.046;18.604;2023-03-01T05:08:17;38;29;21
58740;PMS7003;44512;53.046;18.604;2023-03-01T05:18:45;43;37;24
58740;PMS7003;44512;53.046;18.604;2023-03-01T05:29:14;49;37;24
58740;PMS7003;44512;53.046;18.604;2023-03-01T05:39:42;39;32;24
58740;PMS7003;44512;53.046;18.604;2023-03-01T05:50:12;49;37;25
58740;PMS7003;44512;53.046;18.604;2023-03-01T06:00:39;51;34;22
58740;PMS7003;44512;53.046;18.604;2023-03-01T06:11:08;52;39;27
58740;PMS7003;44512;53.046;18.604;2023-03-01T06:21:36;47;38;26
58740;PMS7003;44512;53.046;18.604;2023-03-01T06:32:05;41;32;23
58740;PMS7003;44512;53.046;18.604;2023-03-01T06:42:34;51;37;26
58740;PMS7003;44512;53.046;18.604;2023-03-01T06:53:02;46;38;25
58740;PMS7003;44512;53.046;18.604;2023-03-01T07:03:30;44;32;19
58740;PMS7003;44512;53.046;18.604;2023-03-01T07:13:58;43;36;23
58740;PMS7003;44512;53.046;18.604;2023-03-01T07:24:27;41;32;23
58740;PMS7003;44512;53.046;18.604;2023-03-01T07:34:55;46;37;24
58740;PMS7003;44512;53.046;18.604;2023-03-01T07:45:24;30;25;19
58740;PMS7003;44512;53.046;18.604;2023-03-01T08:06:21;34;27;19
58740;PMS7003;44512;53.046;18.604;2023-03-01T08:16:49;34;28;19
58740;PMS7003;44512;53.046;18.604;2023-03-01T08:27:18;36;29;18
58740;PMS7003;44512;53.046;18.604;2023-03-01T08:37:46;29;25;18
58740;PMS7003;44512;53.046;18.604;2023-03-01T08:48:14;35;29;21
58740;PMS7003;44512;53.046;18.604;2023-03-01T08:58:44;38;29;20
58740;PMS7003;44512;53.046;18.604;2023-03-01T09:09:15;37;29;22
58740;PMS7003;44512;53.046;18.604;2023-03-01T09:19:40;35;27;17
58740;PMS7003;44512;53.046;18.604;2023-03-01T09:35:08;36;32;20
58740;PMS7003;44512;53.046;18.604;2023-03-01T09:45:38;34;27;19
58740;PMS7003;44512;53.046;18.604;2023-03-01T09:56:10;31;26;17
58740;PMS7003;44512;53.046;18.604;2023-03-01T10:06:34;33;29;20
58740;PMS7003;44512;53.046;18.604;2023-03-01T10:17:12;30;23;17
58740;PMS7003;44512;53.046;18.604;2023-03-01T10:27:34;29;22;17
58740;PMS7003;44512;53.046;18.604;2023-03-01T10:48:27;33;23;16
58740;PMS7003;44512;53.046;18.604;2023-03-01T10:59:00;23;20;14
58740;PMS7003;44512;53.046;18.604;2023-03-01T11:09:24;19;17;13
58740;PMS7003;44512;53.046;18.604;2023-03-01T11:40:52;25;20;15
58740;PMS7003;44512;53.046;18.604;2023-03-01T11:51:30;24;22;14
58740;PMS7003;44512;53.046;18.604;2023-03-01T12:43:48;14;9;7
58740;PMS7003;44512;53.046;18.604;2023-03-01T12:54:15;17;12;9
58740;PMS7003;44512;53.046;18.604;2023-03-01T13:15:13;16;14;9
58740;PMS7003;44512;53.046;18.604;2023-03-01T13:25:34;17;11;8
58740;PMS7003;44512;53.046;18.604;2023-03-01T13:36:02;20;14;9
58740;PMS7003;44512;53.046;18.604;2023-03-01T13:46:30;12;10;7
58740;PMS7003;44512;53.046;18.604;2023-03-01T13:56:59;15;12;9
58740;PMS7003;44512;53.046;18.604;2023-03-01T14:07:27;15;12;10
58740;PMS7003;44512;53.046;18.604;2023-03-01T14:17:58;15;12;9
58740;PMS7003;44512;53.046;18.604;2023-03-01T14:28:25;14;13;10
58740;PMS7003;44512;53.046;18.604;2023-03-01T14:38:52;14;11;8
58740;PMS7003;44512;53.046;18.604;2023-03-01T14:49:25;12;11;7
58740;PMS7003;44512;53.046;18.604;2023-03-01T14:59:53;15;11;8
58740;PMS7003;44512;53.046;18.604;2023-03-01T15:10:22;11;11;7
58740;PMS7003;44512;53.046;18.604;2023-03-01T15:20:46;10;9;6
58740;PMS7003;44512;53.046;18.604;2023-03-01T15:31:19;13;12;9
58740;PMS7003;44512;53.046;18.604;2023-03-01T15:41:47;13;11;9
58740;PMS7003;44512;53.046;18.604;2023-03-01T15:52:19;13;12;9
58740;PMS7003;44512;53.046;18.604;2023-03-01T16:02:40;15;14;9
58740;PMS7003;44512;53.046;18.604;2023-03-01T16:13:08;13;11;8
58740;PMS7003;44512;53.046;18.604;2023-03-01T16:23:36;13;10;7
58740;PMS7003;44512;53.046;18.604;2023-03-01T16:34:05;15;11;9
58740;PMS7003;44512;53.046;18.604;2023-03-01T16:44:33;17;13;10
58740;PMS7003;44512;53.046;18.604;2023-03-01T16:55:02;17;14;11
58740;PMS7003;44512;53.046;18.604;2023-03-01T17:05:30;17;14;11
58740;PMS7003;44512;53.046;18.604;2023-03-01T17:15:58;17;13;10
58740;PMS7003;44512;53.046;18.604;2023-03-01T17:26:27;15;12;9
58740;PMS7003;44512;53.046;18.604;2023-03-01T17:36:55;37;33;22
58740;PMS7003;44512;53.046;18.604;2023-03-01T17:47:24;64;51;32
58740;PMS7003;44512;53.046;18.604;2023-03-01T17:57:52;63;48;33
58740;PMS7003;44512;53.046;18.604;2023-03-01T18:08:21;54;41;27
58740;PMS7003;44512;53.046;18.604;2023-03-01T18:18:53;52;37;26
58740;PMS7003;44512;53.046;18.604;2023-03-01T18:29:18;54;43;28
58740;PMS7003;44512;53.046;18.604;2023-03-01T18:39:49;64;50;34
58740;PMS7003;44512;53.046;18.604;2023-03-01T18:50:15;67;50;32
58740;PMS7003;44512;53.046;18.604;2023-03-01T19:00:43;63;47;31
58740;PMS7003;44512;53.046;18.604;2023-03-01T19:11:12;61;46;31
58740;PMS7003;44512;53.046;18.604;2023-03-01T19:21:40;62;46;30
58740;PMS7003;44512;53.046;18.604;2023-03-01T19:32:09;54;42;30
58740;PMS7003;44512;53.046;18.604;2023-03-01T19:42:37;60;42;27
58740;PMS7003;44512;53.046;18.604;2023-03-01T19:53:05;52;38;25
58740;PMS7003;44512;53.046;18.604;2023-03-01T20:03:34;53;39;27
58740;PMS7003;44512;53.046;18.604;2023-03-01T20:14:02;54;40;25
58740;PMS7003;44512;53.046;18.604;2023-03-01T20:24:31;55;43;28
58740;PMS7003;44512;53.046;18.604;2023-03-01T20:34:59;56;41;27
58740;PMS7003;44512;53.046;18.604;2023-03-01T20:45:28;53;40;27
58740;PMS7003;44512;53.046;18.604;2023-03-01T20:56:00;57;42;26
58740;PMS7003;44512;53.046;18.604;2023-03-01T21:06:25;60;43;30
58740;PMS7003;44512;53.046;18.604;2023-03-01T21:16:53;63;45;29
58740;PMS7003;44512;53.046;18.604;2023-03-01T21:27:22;62;47;32
58740;PMS7003;44512;53.046;18.604;2023-03-01T21:37:50;76;54;35
58740;PMS7003;44512;53.046;18.604;2023-03-01T21:48:19;65;47;31
58740;PMS7003;44512;53.046;18.604;2023-03-01T21:58:47;69;50;32
58740;PMS7003;44512;53.046;18.604;2023-03-01T22:09:16;60;45;30
58740;PMS7003;44512;53.046;18.604;2023-03-01T22:19:44;69;52;34
58740;PMS7003;44512;53.046;18.604;2023-03-01T22:30:13;80;58;37
58740;PMS7003;44512;53.046;18.604;2023-03-01T22:40:41;73;52;35
58740;PMS7003;44512;53.046;18.604;2023-03-01T22:51:13;59;45;29
58740;PMS7003;44512;53.046;18.604;2023-03-01T23:01:39;60;45;29
58740;PMS7003;44512;53.046;18.604;2023-03-01T23:12:07;67;49;31
58740;PMS7003;44512;53.046;18.604;2023-03-01T23:22:35;55;41;27
58740;PMS7003;44512;53.046;18.604;2023-03-01T23:33:03;37;34;24
58740;PMS7003;44512;53.046;18.604;2023-03-01T23:43:32;35;28;19
58740;PMS7003;44512;53.046;18.604;2023-03-01T23:54:01;39;27;18
